CNP12 EHEH-LFPB
Flight info
| Callsign | CNP12 |
|---|---|
| Flight time | 1h 0m |
| Altitude | 23000 |
| Route | WOODY N872 CIV/N0359F190 Y50 MATIX |
| Aircraft | HDJT/L-SABDGRWY/H |
Departure
| Time | 2026-04-26 13:32 |
|---|---|
| Airport | Eindhoven Airport (EHEH) |
Arrival
| Time | 2026-04-26 14:33 |
|---|---|
| Airport | Paris-Le Bourget International Airport (LFPB) |
| Time | Latitude | Longitude | Altitude | Speed | Heading |
|---|---|---|---|---|---|
| 2026-04-26 13:11 | 51.45472 | 5.38549 | 68 ft | 0 kts | 33° |
| 2026-04-26 13:20 | 51.45507 | 5.38556 | 68 ft | 8 kts | 314° |
| 2026-04-26 13:20 | 51.45542 | 5.38524 | 66 ft | 6 kts | 22° |
| 2026-04-26 13:20 | 51.45581 | 5.38564 | 67 ft | 8 kts | 36° |
| 2026-04-26 13:20 | 51.45639 | 5.38645 | 68 ft | 11 kts | 55° |
| 2026-04-26 13:21 | 51.45687 | 5.38717 | 69 ft | 9 kts | 34° |
| 2026-04-26 13:21 | 51.45740 | 5.38775 | 64 ft | 9 kts | 31° |
| 2026-04-26 13:21 | 51.45793 | 5.38776 | 68 ft | 8 kts | 314° |
| 2026-04-26 13:21 | 51.45824 | 5.38708 | 69 ft | 7 kts | 303° |
| 2026-04-26 13:22 | 51.45837 | 5.38676 | 68 ft | 0 kts | 307° |
| 2026-04-26 13:23 | 51.45856 | 5.38634 | 71 ft | 11 kts | 303° |
| 2026-04-26 13:23 | 51.45921 | 5.38483 | 69 ft | 18 kts | 307° |
| 2026-04-26 13:23 | 51.45987 | 5.38341 | 68 ft | 12 kts | 304° |
| 2026-04-26 13:24 | 51.45997 | 5.38278 | 73 ft | 5 kts | 242° |
| 2026-04-26 13:24 | 51.45933 | 5.38201 | 69 ft | 19 kts | 217° |
| 2026-04-26 13:24 | 51.45789 | 5.38040 | 70 ft | 27 kts | 215° |
| 2026-04-26 13:24 | 51.45639 | 5.37871 | 70 ft | 25 kts | 212° |
| 2026-04-26 13:25 | 51.45497 | 5.37716 | 75 ft | 25 kts | 214° |
| 2026-04-26 13:25 | 51.45356 | 5.37564 | 74 ft | 25 kts | 214° |
| 2026-04-26 13:25 | 51.45213 | 5.37405 | 73 ft | 25 kts | 217° |
| 2026-04-26 13:25 | 51.45076 | 5.37243 | 71 ft | 24 kts | 214° |
| 2026-04-26 13:26 | 51.44944 | 5.37098 | 76 ft | 23 kts | 214° |
| 2026-04-26 13:26 | 51.44819 | 5.36962 | 78 ft | 22 kts | 214° |
| 2026-04-26 13:26 | 51.44675 | 5.36792 | 70 ft | 27 kts | 216° |
| 2026-04-26 13:26 | 51.44514 | 5.36615 | 72 ft | 28 kts | 218° |
| 2026-04-26 13:27 | 51.44359 | 5.36437 | 73 ft | 26 kts | 213° |
| 2026-04-26 13:27 | 51.44212 | 5.36277 | 76 ft | 25 kts | 214° |
| 2026-04-26 13:27 | 51.44072 | 5.36122 | 76 ft | 25 kts | 214° |
| 2026-04-26 13:27 | 51.43988 | 5.36081 | 72 ft | 9 kts | 144° |
| 2026-04-26 13:28 | 51.43969 | 5.36113 | 74 ft | 0 kts | 124° |
| 2026-04-26 13:30 | 51.43959 | 5.36136 | 73 ft | 11 kts | 123° |
| 2026-04-26 13:30 | 51.43944 | 5.36258 | 70 ft | 8 kts | 25° |
| 2026-04-26 13:30 | 51.43954 | 5.36267 | 73 ft | 0 kts | 38° |
| 2026-04-26 13:32 | 51.43979 | 5.36296 | 73 ft | 21 kts | 34° |
| 2026-04-26 13:32 | 51.44387 | 5.36742 | 72 ft | 117 kts | 35° |
| 2026-04-26 13:32 | 51.45110 | 5.37522 | 685 ft | 118 kts | 35° |
| 2026-04-26 13:33 | 51.45686 | 5.38162 | 1619 ft | 91 kts | 37° |
| 2026-04-26 13:33 | 51.46249 | 5.38810 | 2054 ft | 106 kts | 36° |
| 2026-04-26 13:33 | 51.46881 | 5.39521 | 2545 ft | 114 kts | 34° |
| 2026-04-26 13:33 | 51.47536 | 5.40268 | 2984 ft | 122 kts | 34° |
| 2026-04-26 13:34 | 51.48220 | 5.41034 | 3249 ft | 119 kts | 34° |
| 2026-04-26 13:34 | 51.48906 | 5.41798 | 3499 ft | 122 kts | 33° |
| 2026-04-26 13:34 | 51.49601 | 5.42578 | 3790 ft | 123 kts | 33° |
| 2026-04-26 13:34 | 51.50063 | 5.43101 | 3956 ft | 122 kts | 34° |
| 2026-04-26 13:35 | 51.51074 | 5.43819 | 4599 ft | 128 kts | 355° |
| 2026-04-26 13:35 | 51.51925 | 5.43272 | 5106 ft | 141 kts | 317° |
| 2026-04-26 13:35 | 51.52338 | 5.41765 | 5597 ft | 163 kts | 274° |
| 2026-04-26 13:35 | 51.52185 | 5.39862 | 6086 ft | 180 kts | 263° |
| 2026-04-26 13:36 | 51.51972 | 5.37714 | 6330 ft | 213 kts | 264° |
| 2026-04-26 13:36 | 51.51745 | 5.35210 | 6338 ft | 236 kts | 264° |
| 2026-04-26 13:36 | 51.51502 | 5.32584 | 6327 ft | 237 kts | 264° |
| 2026-04-26 13:36 | 51.51258 | 5.29977 | 6328 ft | 236 kts | 264° |
| 2026-04-26 13:37 | 51.51016 | 5.27362 | 6322 ft | 236 kts | 263° |
| 2026-04-26 13:37 | 51.50774 | 5.24769 | 6332 ft | 234 kts | 263° |
| 2026-04-26 13:37 | 51.50532 | 5.22140 | 6703 ft | 237 kts | 263° |
| 2026-04-26 13:37 | 51.50375 | 5.19548 | 7639 ft | 234 kts | 274° |
| 2026-04-26 13:38 | 51.50659 | 5.16967 | 8495 ft | 236 kts | 287° |
| 2026-04-26 13:38 | 51.51110 | 5.14428 | 9433 ft | 237 kts | 286° |
| 2026-04-26 13:38 | 51.51544 | 5.11846 | 10293 ft | 241 kts | 286° |
| 2026-04-26 13:38 | 51.51987 | 5.09231 | 11112 ft | 245 kts | 286° |
| 2026-04-26 13:39 | 51.52439 | 5.06578 | 11953 ft | 247 kts | 286° |
| 2026-04-26 13:39 | 51.52895 | 5.03899 | 12807 ft | 250 kts | 286° |
| 2026-04-26 13:39 | 51.53349 | 5.01225 | 13664 ft | 253 kts | 286° |
| 2026-04-26 13:39 | 51.53813 | 4.98488 | 14487 ft | 256 kts | 287° |
| 2026-04-26 13:40 | 51.54280 | 4.95724 | 15279 ft | 258 kts | 286° |
| 2026-04-26 13:40 | 51.54751 | 4.92934 | 16077 ft | 260 kts | 286° |
| 2026-04-26 13:40 | 51.55227 | 4.90115 | 16876 ft | 263 kts | 286° |
| 2026-04-26 13:40 | 51.55684 | 4.87259 | 17679 ft | 266 kts | 281° |
| 2026-04-26 13:41 | 51.55791 | 4.84274 | 18483 ft | 271 kts | 268° |
| 2026-04-26 13:41 | 51.55485 | 4.81259 | 19199 ft | 275 kts | 259° |
| 2026-04-26 13:41 | 51.55066 | 4.78246 | 19913 ft | 277 kts | 261° |
| 2026-04-26 13:41 | 51.54663 | 4.75208 | 20634 ft | 279 kts | 261° |
| 2026-04-26 13:42 | 51.54253 | 4.72142 | 21363 ft | 282 kts | 260° |
| 2026-04-26 13:42 | 51.53830 | 4.69050 | 22110 ft | 285 kts | 260° |
| 2026-04-26 13:42 | 51.53404 | 4.65930 | 22844 ft | 287 kts | 260° |
| 2026-04-26 13:42 | 51.52972 | 4.62764 | 23295 ft | 294 kts | 260° |
| 2026-04-26 13:43 | 51.52536 | 4.59568 | 23292 ft | 292 kts | 260° |
| 2026-04-26 13:43 | 51.52099 | 4.56385 | 23289 ft | 292 kts | 260° |
| 2026-04-26 13:43 | 51.51661 | 4.53197 | 23290 ft | 292 kts | 260° |
| 2026-04-26 13:43 | 51.51164 | 4.50042 | 23289 ft | 293 kts | 253° |
| 2026-04-26 13:44 | 51.50288 | 4.47062 | 23299 ft | 297 kts | 242° |
| 2026-04-26 13:44 | 51.49046 | 4.44400 | 23305 ft | 301 kts | 231° |
| 2026-04-26 13:44 | 51.47461 | 4.42164 | 23291 ft | 307 kts | 219° |
| 2026-04-26 13:44 | 51.45592 | 4.40471 | 23298 ft | 311 kts | 209° |
| 2026-04-26 13:45 | 51.43633 | 4.39001 | 23303 ft | 311 kts | 210° |
| 2026-04-26 13:45 | 51.41683 | 4.37505 | 23298 ft | 311 kts | 210° |
| 2026-04-26 13:45 | 51.39757 | 4.36028 | 23300 ft | 311 kts | 210° |
| 2026-04-26 13:45 | 51.35823 | 4.33040 | 23300 ft | 311 kts | 210° |
| 2026-04-26 13:46 | 51.31002 | 4.29379 | 23319 ft | 311 kts | 210° |
| 2026-04-26 13:46 | 51.28398 | 4.27400 | 23317 ft | 311 kts | 210° |
| 2026-04-26 13:46 | 51.20588 | 4.21479 | 23315 ft | 311 kts | 209° |
| 2026-04-26 13:46 | 51.13864 | 4.16907 | 23307 ft | 314 kts | 201° |
| 2026-04-26 13:47 | 51.07411 | 4.13386 | 23309 ft | 314 kts | 203° |
| 2026-04-26 13:47 | 50.99158 | 4.08883 | 23297 ft | 314 kts | 203° |
| 2026-04-26 13:47 | 50.90904 | 4.04387 | 23294 ft | 314 kts | 203° |
| 2026-04-26 13:47 | 50.82793 | 3.99441 | 23295 ft | 312 kts | 206° |
| 2026-04-26 13:48 | 50.74709 | 3.94295 | 23289 ft | 313 kts | 206° |
| 2026-04-26 13:48 | 50.66561 | 3.89097 | 23288 ft | 329 kts | 205° |
| 2026-04-26 13:48 | 50.57181 | 3.83863 | 23288 ft | 375 kts | 190° |
| 2026-04-26 13:48 | 50.46744 | 3.85137 | 23285 ft | 377 kts | 176° |
| 2026-04-26 13:49 | 50.41548 | 3.85996 | 23286 ft | 378 kts | 176° |
| 2026-04-26 13:49 | 50.38931 | 3.86459 | 23288 ft | 378 kts | 176° |
| 2026-04-26 13:49 | 50.36317 | 3.86913 | 23288 ft | 378 kts | 176° |
| 2026-04-26 13:49 | 50.33709 | 3.87354 | 23277 ft | 377 kts | 176° |
| 2026-04-26 13:50 | 50.31099 | 3.87798 | 23279 ft | 377 kts | 176° |
| 2026-04-26 13:50 | 50.28491 | 3.88246 | 23275 ft | 377 kts | 176° |
| 2026-04-26 13:50 | 50.25880 | 3.88693 | 23272 ft | 377 kts | 176° |
| 2026-04-26 13:50 | 50.23272 | 3.89135 | 23271 ft | 377 kts | 176° |
| 2026-04-26 13:51 | 50.20663 | 3.89577 | 23270 ft | 377 kts | 176° |
| 2026-04-26 13:51 | 50.18054 | 3.90022 | 23270 ft | 377 kts | 176° |
| 2026-04-26 13:51 | 50.15448 | 3.90465 | 23269 ft | 377 kts | 176° |
| 2026-04-26 13:51 | 50.12835 | 3.90907 | 23258 ft | 377 kts | 176° |
| 2026-04-26 13:52 | 50.10227 | 3.91349 | 23256 ft | 377 kts | 176° |
| 2026-04-26 13:52 | 50.07619 | 3.91791 | 23254 ft | 377 kts | 176° |
| 2026-04-26 13:52 | 50.05010 | 3.92233 | 23256 ft | 377 kts | 176° |
| 2026-04-26 13:52 | 50.02399 | 3.92676 | 23255 ft | 377 kts | 176° |
| 2026-04-26 13:53 | 49.99789 | 3.93117 | 23252 ft | 377 kts | 176° |
| 2026-04-26 13:53 | 49.97173 | 3.93558 | 23250 ft | 377 kts | 176° |
| 2026-04-26 13:53 | 49.94598 | 3.93992 | 23250 ft | 377 kts | 176° |
| 2026-04-26 13:53 | 49.91985 | 3.94432 | 23249 ft | 377 kts | 176° |
| 2026-04-26 13:54 | 49.89375 | 3.94871 | 23246 ft | 378 kts | 176° |
| 2026-04-26 13:54 | 49.86762 | 3.95312 | 23246 ft | 378 kts | 176° |
| 2026-04-26 13:54 | 49.84149 | 3.95750 | 23014 ft | 378 kts | 176° |
| 2026-04-26 13:55 | 49.78967 | 3.96619 | 22037 ft | 372 kts | 176° |
| 2026-04-26 13:55 | 49.77265 | 3.96904 | 21714 ft | 370 kts | 176° |
| 2026-04-26 13:55 | 49.71331 | 3.97896 | 20576 ft | 364 kts | 176° |
| 2026-04-26 13:56 | 49.68818 | 3.98315 | 20092 ft | 362 kts | 176° |
| 2026-04-26 13:56 | 49.66325 | 3.98731 | 19617 ft | 359 kts | 176° |
| 2026-04-26 13:56 | 49.63850 | 3.99143 | 19148 ft | 357 kts | 176° |
| 2026-04-26 13:56 | 49.61389 | 3.99552 | 18673 ft | 354 kts | 176° |
| 2026-04-26 13:57 | 49.58947 | 3.99957 | 18175 ft | 352 kts | 175° |
| 2026-04-26 13:57 | 49.56523 | 4.00360 | 17708 ft | 349 kts | 175° |
| 2026-04-26 13:57 | 49.54118 | 4.00759 | 17249 ft | 346 kts | 175° |
| 2026-04-26 13:57 | 49.51732 | 4.01152 | 16795 ft | 344 kts | 176° |
| 2026-04-26 13:58 | 49.49370 | 4.00977 | 15961 ft | 339 kts | 194° |
| 2026-04-26 13:58 | 49.47186 | 3.99602 | 14435 ft | 334 kts | 215° |
| 2026-04-26 13:58 | 49.45619 | 3.97299 | 13051 ft | 308 kts | 234° |
| 2026-04-26 13:58 | 49.44369 | 3.94555 | 11791 ft | 319 kts | 237° |
| 2026-04-26 13:59 | 49.43097 | 3.91984 | 11238 ft | 298 kts | 229° |
| 2026-04-26 13:59 | 49.41638 | 3.89753 | 11229 ft | 296 kts | 223° |
| 2026-04-26 13:59 | 49.40080 | 3.87668 | 11235 ft | 298 kts | 223° |
| 2026-04-26 14:00 | 49.35610 | 3.81062 | 11232 ft | 297 kts | 224° |
| 2026-04-26 14:00 | 49.34121 | 3.78909 | 11234 ft | 287 kts | 224° |
| 2026-04-26 14:00 | 49.33169 | 3.77528 | 11237 ft | 284 kts | 225° |
| 2026-04-26 14:01 | 49.31250 | 3.74712 | 11237 ft | 286 kts | 225° |
| 2026-04-26 14:01 | 49.29809 | 3.72603 | 11239 ft | 286 kts | 225° |
| 2026-04-26 14:01 | 49.28370 | 3.70507 | 11233 ft | 286 kts | 225° |
| 2026-04-26 14:01 | 49.26931 | 3.68410 | 11232 ft | 285 kts | 225° |
| 2026-04-26 14:02 | 49.25621 | 3.66201 | 11236 ft | 283 kts | 240° |
| 2026-04-26 14:02 | 49.24875 | 3.63388 | 11244 ft | 282 kts | 256° |
| 2026-04-26 14:02 | 49.24406 | 3.60516 | 11241 ft | 282 kts | 258° |
| 2026-04-26 14:02 | 49.23984 | 3.57582 | 11241 ft | 282 kts | 258° |
| 2026-04-26 14:03 | 49.23572 | 3.54641 | 11248 ft | 282 kts | 259° |
| 2026-04-26 14:03 | 49.23164 | 3.51702 | 11247 ft | 283 kts | 259° |
| 2026-04-26 14:03 | 49.22765 | 3.48755 | 11250 ft | 283 kts | 259° |
| 2026-04-26 14:03 | 49.22363 | 3.45815 | 11254 ft | 282 kts | 259° |
| 2026-04-26 14:04 | 49.21959 | 3.42876 | 11255 ft | 282 kts | 259° |
| 2026-04-26 14:04 | 49.21547 | 3.39937 | 11253 ft | 283 kts | 259° |
| 2026-04-26 14:04 | 49.21138 | 3.36998 | 11252 ft | 283 kts | 259° |
| 2026-04-26 14:04 | 49.20731 | 3.34058 | 11252 ft | 283 kts | 259° |
| 2026-04-26 14:05 | 49.20325 | 3.31118 | 11254 ft | 283 kts | 259° |
| 2026-04-26 14:05 | 49.20053 | 3.29130 | 11253 ft | 283 kts | 259° |
| 2026-04-26 14:05 | 49.19654 | 3.26234 | 11250 ft | 283 kts | 258° |
| 2026-04-26 14:05 | 49.19248 | 3.23294 | 11251 ft | 282 kts | 259° |
| 2026-04-26 14:06 | 49.18835 | 3.20365 | 11253 ft | 282 kts | 259° |
| 2026-04-26 14:06 | 49.18512 | 3.17409 | 11254 ft | 282 kts | 265° |
| 2026-04-26 14:06 | 49.18385 | 3.14419 | 11253 ft | 281 kts | 268° |
| 2026-04-26 14:06 | 49.18308 | 3.11422 | 11252 ft | 282 kts | 267° |
| 2026-04-26 14:07 | 49.17872 | 3.08509 | 11248 ft | 283 kts | 250° |
| 2026-04-26 14:07 | 49.17168 | 3.05701 | 11248 ft | 283 kts | 251° |
| 2026-04-26 14:07 | 49.16634 | 3.02808 | 11252 ft | 282 kts | 259° |
| 2026-04-26 14:07 | 49.16308 | 2.99855 | 11250 ft | 282 kts | 262° |
| 2026-04-26 14:08 | 49.15972 | 2.96899 | 11252 ft | 282 kts | 259° |
| 2026-04-26 14:08 | 49.15566 | 2.93973 | 11253 ft | 282 kts | 258° |
| 2026-04-26 14:08 | 49.15152 | 2.91033 | 11253 ft | 283 kts | 259° |
| 2026-04-26 14:08 | 49.14762 | 2.88092 | 11252 ft | 282 kts | 259° |
| 2026-04-26 14:09 | 49.14376 | 2.85159 | 11255 ft | 282 kts | 259° |
| 2026-04-26 14:09 | 49.13982 | 2.82222 | 11249 ft | 282 kts | 259° |
| 2026-04-26 14:09 | 49.13586 | 2.79291 | 11246 ft | 282 kts | 259° |
| 2026-04-26 14:09 | 49.13190 | 2.76356 | 11240 ft | 282 kts | 259° |
| 2026-04-26 14:10 | 49.12793 | 2.73413 | 11248 ft | 287 kts | 259° |
| 2026-04-26 14:10 | 49.12380 | 2.70368 | 11244 ft | 295 kts | 259° |
| 2026-04-26 14:10 | 49.11965 | 2.67309 | 11241 ft | 294 kts | 259° |
| 2026-04-26 14:10 | 49.11550 | 2.64257 | 11243 ft | 293 kts | 259° |
| 2026-04-26 14:11 | 49.10722 | 2.58187 | 11243 ft | 293 kts | 259° |
| 2026-04-26 14:11 | 49.10389 | 2.55134 | 11201 ft | 289 kts | 266° |
| 2026-04-26 14:11 | 49.10387 | 2.52088 | 10610 ft | 288 kts | 273° |
| 2026-04-26 14:12 | 49.10508 | 2.49037 | 9903 ft | 286 kts | 274° |
| 2026-04-26 14:12 | 49.10554 | 2.46044 | 9431 ft | 275 kts | 269° |
| 2026-04-26 14:12 | 49.10504 | 2.43148 | 8778 ft | 273 kts | 268° |
| 2026-04-26 14:12 | 49.10459 | 2.40259 | 8122 ft | 271 kts | 269° |
| 2026-04-26 14:13 | 49.09906 | 2.34686 | 6839 ft | 266 kts | 248° |
| 2026-04-26 14:13 | 49.09504 | 2.31941 | 6193 ft | 265 kts | 264° |
| 2026-04-26 14:13 | 49.09397 | 2.29177 | 5604 ft | 263 kts | 268° |
| 2026-04-26 14:14 | 49.09341 | 2.26399 | 5014 ft | 261 kts | 268° |
| 2026-04-26 14:14 | 49.09294 | 2.23619 | 4318 ft | 262 kts | 269° |
| 2026-04-26 14:14 | 49.09235 | 2.20836 | 3704 ft | 260 kts | 269° |
| 2026-04-26 14:14 | 49.09165 | 2.18090 | 3125 ft | 261 kts | 269° |
| 2026-04-26 14:15 | 49.09084 | 2.15360 | 3015 ft | 250 kts | 268° |
| 2026-04-26 14:15 | 49.09012 | 2.12810 | 2995 ft | 231 kts | 269° |
| 2026-04-26 14:15 | 49.08948 | 2.10424 | 2987 ft | 220 kts | 269° |
| 2026-04-26 14:15 | 49.08893 | 2.08118 | 2993 ft | 216 kts | 269° |
| 2026-04-26 14:16 | 49.08830 | 2.05803 | 3004 ft | 219 kts | 268° |
| 2026-04-26 14:16 | 49.08759 | 2.03510 | 3006 ft | 214 kts | 268° |
| 2026-04-26 14:16 | 49.08675 | 2.01223 | 2963 ft | 215 kts | 263° |
| 2026-04-26 14:16 | 49.08087 | 1.99177 | 3004 ft | 215 kts | 227° |
| 2026-04-26 14:17 | 49.06842 | 1.97887 | 3003 ft | 218 kts | 204° |
| 2026-04-26 14:17 | 49.05450 | 1.96977 | 3006 ft | 217 kts | 202° |
| 2026-04-26 14:17 | 49.04056 | 1.96083 | 3029 ft | 227 kts | 201° |
| 2026-04-26 14:17 | 49.02537 | 1.95097 | 3005 ft | 241 kts | 201° |
| 2026-04-26 14:18 | 49.01011 | 1.94095 | 3007 ft | 236 kts | 202° |
| 2026-04-26 14:18 | 48.99506 | 1.93122 | 3001 ft | 241 kts | 201° |
| 2026-04-26 14:18 | 48.97986 | 1.92150 | 3019 ft | 234 kts | 201° |
| 2026-04-26 14:18 | 48.96472 | 1.91174 | 2997 ft | 237 kts | 202° |
| 2026-04-26 14:19 | 48.94948 | 1.90189 | 3001 ft | 240 kts | 201° |
| 2026-04-26 14:19 | 48.93400 | 1.89301 | 2986 ft | 237 kts | 202° |
| 2026-04-26 14:19 | 48.91877 | 1.88305 | 2988 ft | 238 kts | 201° |
| 2026-04-26 14:19 | 48.90344 | 1.87298 | 3023 ft | 240 kts | 202° |
| 2026-04-26 14:20 | 48.88819 | 1.86305 | 3000 ft | 238 kts | 201° |
| 2026-04-26 14:20 | 48.87288 | 1.85335 | 2990 ft | 238 kts | 201° |
| 2026-04-26 14:20 | 48.85776 | 1.84364 | 2988 ft | 234 kts | 202° |
| 2026-04-26 14:20 | 48.84264 | 1.83396 | 2977 ft | 238 kts | 201° |
| 2026-04-26 14:21 | 48.82738 | 1.82414 | 2967 ft | 238 kts | 201° |
| 2026-04-26 14:21 | 48.81230 | 1.81427 | 3002 ft | 238 kts | 202° |
| 2026-04-26 14:21 | 48.79704 | 1.80429 | 2972 ft | 237 kts | 202° |
| 2026-04-26 14:21 | 48.78175 | 1.79514 | 2975 ft | 236 kts | 192° |
| 2026-04-26 14:22 | 48.76577 | 1.79578 | 2995 ft | 225 kts | 161° |
| 2026-04-26 14:22 | 48.75182 | 1.80465 | 2976 ft | 211 kts | 151° |
| 2026-04-26 14:22 | 48.73864 | 1.81421 | 2986 ft | 210 kts | 151° |
| 2026-04-26 14:22 | 48.72531 | 1.82370 | 2991 ft | 213 kts | 153° |
| 2026-04-26 14:23 | 48.71206 | 1.83367 | 3002 ft | 211 kts | 150° |
| 2026-04-26 14:23 | 48.70149 | 1.84846 | 2982 ft | 207 kts | 116° |
| 2026-04-26 14:23 | 48.69889 | 1.86876 | 2989 ft | 199 kts | 80° |
| 2026-04-26 14:23 | 48.70494 | 1.88731 | 3008 ft | 201 kts | 48° |
| 2026-04-26 14:24 | 48.71518 | 1.90183 | 3005 ft | 202 kts | 41° |
| 2026-04-26 14:24 | 48.72573 | 1.91581 | 3003 ft | 201 kts | 42° |
| 2026-04-26 14:24 | 48.73629 | 1.92972 | 2996 ft | 201 kts | 41° |
| 2026-04-26 14:24 | 48.74680 | 1.94356 | 3004 ft | 201 kts | 42° |
| 2026-04-26 14:25 | 48.75743 | 1.95753 | 3014 ft | 202 kts | 42° |
| 2026-04-26 14:25 | 48.76806 | 1.97128 | 3007 ft | 200 kts | 42° |
| 2026-04-26 14:25 | 48.77854 | 1.98503 | 2996 ft | 202 kts | 42° |
| 2026-04-26 14:25 | 48.78915 | 1.99904 | 2988 ft | 201 kts | 41° |
| 2026-04-26 14:26 | 48.79923 | 2.01354 | 3013 ft | 201 kts | 46° |
| 2026-04-26 14:26 | 48.80892 | 2.02854 | 2989 ft | 194 kts | 45° |
| 2026-04-26 14:26 | 48.81845 | 2.04234 | 2984 ft | 188 kts | 43° |
| 2026-04-26 14:26 | 48.82815 | 2.05620 | 3003 ft | 192 kts | 44° |
| 2026-04-26 14:27 | 48.83775 | 2.06996 | 2995 ft | 189 kts | 44° |
| 2026-04-26 14:27 | 48.84722 | 2.08358 | 2983 ft | 188 kts | 43° |
| 2026-04-26 14:27 | 48.85688 | 2.09732 | 2971 ft | 190 kts | 44° |
| 2026-04-26 14:27 | 48.86652 | 2.11117 | 2992 ft | 190 kts | 44° |
| 2026-04-26 14:28 | 48.87611 | 2.12490 | 2996 ft | 188 kts | 44° |
| 2026-04-26 14:28 | 48.88543 | 2.13850 | 2986 ft | 189 kts | 45° |
| 2026-04-26 14:28 | 48.89418 | 2.15341 | 2988 ft | 191 kts | 61° |
| 2026-04-26 14:28 | 48.89836 | 2.17251 | 2998 ft | 191 kts | 72° |
| 2026-04-26 14:29 | 48.90263 | 2.19169 | 3006 ft | 190 kts | 68° |
| 2026-04-26 14:29 | 48.90736 | 2.21019 | 2984 ft | 189 kts | 67° |
| 2026-04-26 14:29 | 48.91243 | 2.22868 | 2870 ft | 192 kts | 66° |
| 2026-04-26 14:29 | 48.91739 | 2.24737 | 2635 ft | 189 kts | 67° |
| 2026-04-26 14:30 | 48.92238 | 2.26579 | 2382 ft | 186 kts | 66° |
| 2026-04-26 14:30 | 48.92731 | 2.28416 | 2129 ft | 188 kts | 67° |
| 2026-04-26 14:30 | 48.93220 | 2.30252 | 1880 ft | 187 kts | 67° |
| 2026-04-26 14:30 | 48.93692 | 2.32012 | 1638 ft | 171 kts | 68° |
| 2026-04-26 14:31 | 48.94122 | 2.33621 | 1410 ft | 155 kts | 67° |
| 2026-04-26 14:31 | 48.94504 | 2.35026 | 1227 ft | 134 kts | 68° |
| 2026-04-26 14:31 | 48.94827 | 2.36241 | 1046 ft | 116 kts | 66° |
| 2026-04-26 14:31 | 48.95119 | 2.37336 | 897 ft | 110 kts | 65° |
| 2026-04-26 14:32 | 48.95416 | 2.38450 | 744 ft | 119 kts | 67° |
| 2026-04-26 14:32 | 48.95727 | 2.39597 | 545 ft | 114 kts | 65° |
| 2026-04-26 14:32 | 48.96028 | 2.40698 | 466 ft | 119 kts | 67° |
| 2026-04-26 14:32 | 48.96339 | 2.41866 | 271 ft | 117 kts | 69° |
| 2026-04-26 14:33 | 48.96648 | 2.43012 | 180 ft | 119 kts | 67° |
| 2026-04-26 14:33 | 48.96936 | 2.44076 | 196 ft | 95 kts | 67° |
| 2026-04-26 14:33 | 48.97053 | 2.44493 | 205 ft | 24 kts | 68° |
| 2026-04-26 14:33 | 48.97118 | 2.44752 | 200 ft | 29 kts | 69° |
| 2026-04-26 14:34 | 48.97202 | 2.45076 | 215 ft | 34 kts | 68° |
| 2026-04-26 14:34 | 48.97307 | 2.45460 | 218 ft | 40 kts | 69° |
| 2026-04-26 14:34 | 48.97377 | 2.45741 | 223 ft | 15 kts | 86° |
| 2026-04-26 14:34 | 48.97341 | 2.45874 | 224 ft | 14 kts | 151° |
| 2026-04-26 14:35 | 48.97238 | 2.45860 | 220 ft | 17 kts | 215° |
| 2026-04-26 14:35 | 48.97211 | 2.45823 | 219 ft | 0 kts | 237° |
| 2026-04-26 14:36 | 48.97196 | 2.45779 | 218 ft | 10 kts | 248° |
| 2026-04-26 14:36 | 48.97153 | 2.45618 | 218 ft | 19 kts | 247° |
| 2026-04-26 14:36 | 48.97083 | 2.45357 | 212 ft | 35 kts | 247° |
| 2026-04-26 14:36 | 48.96982 | 2.44973 | 202 ft | 40 kts | 250° |
| 2026-04-26 14:37 | 48.96902 | 2.44678 | 206 ft | 22 kts | 250° |
| 2026-04-26 14:37 | 48.96814 | 2.44475 | 190 ft | 26 kts | 210° |
| 2026-04-26 14:37 | 48.96626 | 2.44497 | 177 ft | 30 kts | 165° |
| 2026-04-26 14:37 | 48.96419 | 2.44551 | 171 ft | 25 kts | 179° |
| 2026-04-26 14:38 | 48.96278 | 2.44465 | 167 ft | 19 kts | 205° |
| 2026-04-26 14:38 | 48.96202 | 2.44486 | 161 ft | 14 kts | 122° |
| 2026-04-26 14:38 | 48.96181 | 2.44568 | 161 ft | 3 kts | 113° |
| 2026-04-26 14:38 | 48.96176 | 2.44583 | 161 ft | 1 kts | 121° |
| 2026-04-26 14:39 | 48.96145 | 2.44602 | 161 ft | 1 kts | 127° |
| 2026-04-26 14:39 | 48.96144 | 2.44607 | 161 ft | 1 kts | 85° |
| 2026-04-26 14:39 | 48.96146 | 2.44611 | 161 ft | 1 kts | 36° |
| 2026-04-26 14:39 | 48.96147 | 2.44612 | 161 ft | 0 kts | 32° |